createdAt,value
2023-05-05T00:00:41.288Z,879.00
2023-05-05T00:01:41.337Z,882.00
2023-05-05T00:02:41.511Z,878.00
2023-05-05T00:03:41.579Z,877.00
2023-05-05T00:04:41.601Z,878.00
2023-05-05T00:05:41.676Z,871.00
2023-05-05T00:06:41.766Z,880.00
2023-05-05T00:07:41.856Z,874.00
2023-05-05T00:08:41.934Z,866.00
2023-05-05T00:09:42.024Z,874.00
2023-05-05T00:10:42.113Z,874.00
2023-05-05T00:11:42.190Z,864.00
2023-05-05T00:12:42.408Z,880.00
2023-05-05T00:13:42.369Z,863.00
2023-05-05T00:14:42.465Z,861.00
2023-05-05T00:15:42.568Z,864.00
2023-05-05T00:16:42.665Z,862.00
2023-05-05T00:17:42.737Z,868.00
2023-05-05T00:18:42.802Z,863.00
2023-05-05T00:19:42.894Z,857.00
2023-05-05T00:20:43.000Z,861.00
2023-05-05T00:21:43.055Z,846.00
2023-05-05T00:22:43.151Z,858.00
2023-05-05T00:23:43.305Z,854.00
2023-05-05T00:24:43.314Z,842.00
2023-05-05T00:25:43.416Z,854.00
2023-05-05T00:26:43.487Z,847.00
2023-05-05T00:27:43.658Z,849.00
2023-05-05T00:28:43.663Z,850.00
2023-05-05T00:29:43.748Z,850.00
2023-05-05T00:30:43.834Z,835.00
2023-05-05T00:31:43.972Z,842.00
2023-05-05T00:32:44.043Z,846.00
2023-05-05T00:33:44.089Z,841.00
2023-05-05T00:34:44.171Z,837.00
2023-05-05T00:35:44.305Z,827.00
2023-05-05T00:36:45.356Z,842.00
2023-05-05T00:37:44.426Z,825.00
2023-05-05T00:38:44.513Z,841.00
2023-05-05T00:39:44.602Z,835.00
2023-05-05T00:40:44.815Z,830.00
2023-05-05T00:41:44.764Z,846.00
2023-05-05T00:42:44.853Z,837.00
2023-05-05T00:43:44.932Z,837.00
2023-05-05T00:44:45.034Z,839.00
2023-05-05T00:45:45.095Z,833.00
2023-05-05T00:46:45.224Z,832.00
2023-05-05T00:47:45.283Z,822.00
2023-05-05T00:48:45.350Z,824.00
2023-05-05T00:49:45.482Z,825.00
2023-05-05T00:50:45.515Z,839.00
2023-05-05T00:51:45.615Z,824.00
2023-05-05T00:52:45.690Z,820.00
2023-05-05T00:53:45.762Z,819.00
2023-05-05T00:54:45.872Z,830.00
2023-05-05T00:55:46.001Z,837.00
2023-05-05T00:56:46.807Z,807.00
2023-05-05T00:57:46.131Z,828.00
2023-05-05T00:58:46.202Z,813.00
2023-05-05T00:59:46.323Z,811.00
2023-05-05T01:00:46.372Z,818.00
2023-05-05T01:01:46.533Z,811.00
2023-05-05T01:02:46.749Z,818.00
2023-05-05T01:03:46.685Z,814.00
2023-05-05T01:04:46.705Z,804.00
2023-05-05T01:05:46.793Z,817.00
2023-05-05T01:06:46.889Z,789.00
2023-05-05T01:07:46.972Z,805.00
2023-05-05T01:08:47.050Z,807.00
2023-05-05T01:09:47.142Z,790.00
2023-05-05T01:10:47.226Z,811.00
2023-05-05T01:11:47.378Z,809.00
2023-05-05T01:12:47.464Z,805.00
2023-05-05T01:13:47.557Z,801.00
2023-05-05T01:14:47.669Z,791.00
2023-05-05T01:15:47.684Z,781.00
2023-05-05T01:16:47.773Z,788.00
2023-05-05T01:17:47.912Z,789.00
2023-05-05T01:18:47.953Z,794.00
2023-05-05T01:19:48.036Z,795.00
2023-05-05T01:20:48.147Z,783.00
2023-05-05T01:21:48.234Z,774.00
2023-05-05T01:22:48.331Z,778.00
2023-05-05T01:23:48.470Z,783.00
2023-05-05T01:24:48.508Z,792.00
2023-05-05T01:25:48.593Z,785.00
2023-05-05T01:26:48.686Z,774.00
2023-05-05T01:27:48.772Z,790.00
2023-05-05T01:28:48.870Z,787.00
2023-05-05T01:29:48.975Z,777.00
2023-05-05T01:30:49.053Z,777.00
2023-05-05T01:31:49.185Z,771.00
2023-05-05T01:32:49.263Z,766.00
2023-05-05T01:33:49.311Z,768.00
2023-05-05T01:34:49.392Z,775.00
2023-05-05T01:35:49.490Z,755.00
2023-05-05T01:36:49.564Z,762.00
2023-05-05T01:37:49.661Z,757.00
2023-05-05T01:38:49.725Z,769.00
2023-05-05T01:39:49.844Z,758.00
2023-05-05T01:40:49.908Z,753.00
2023-05-05T01:41:49.988Z,750.00
2023-05-05T01:42:50.079Z,744.00
2023-05-05T01:43:50.158Z,738.00
2023-05-05T01:44:50.249Z,737.00
2023-05-05T01:45:50.438Z,739.00
2023-05-05T01:46:50.436Z,731.00
2023-05-05T01:47:50.534Z,749.00
2023-05-05T01:48:50.629Z,736.00
2023-05-05T01:49:50.731Z,740.00
2023-05-05T01:50:50.814Z,735.00
2023-05-05T01:51:50.910Z,716.00
2023-05-05T01:52:51.340Z,726.00
2023-05-05T01:53:51.087Z,737.00
2023-05-05T01:54:51.179Z,726.00
2023-05-05T01:55:51.259Z,725.00
2023-05-05T01:56:51.835Z,717.00
2023-05-05T01:57:51.442Z,716.00
2023-05-05T01:58:51.543Z,728.00
2023-05-05T01:59:51.640Z,727.00
2023-05-05T02:00:51.755Z,719.00
2023-05-05T02:01:51.903Z,719.00
2023-05-05T02:02:51.952Z,714.00
2023-05-05T02:03:51.985Z,713.00
2023-05-05T02:04:52.071Z,712.00
2023-05-05T02:05:52.169Z,725.00
2023-05-05T02:06:52.231Z,715.00
2023-05-05T02:07:52.328Z,712.00
2023-05-05T02:08:52.378Z,706.00
2023-05-05T02:09:52.452Z,702.00
2023-05-05T02:10:52.527Z,708.00
2023-05-05T02:11:52.704Z,712.00
2023-05-05T02:12:52.791Z,696.00
2023-05-05T02:13:52.795Z,698.00
2023-05-05T02:14:52.868Z,689.00
2023-05-05T02:15:53.011Z,708.00
2023-05-05T02:16:53.099Z,713.00
2023-05-05T02:17:53.219Z,699.00
2023-05-05T02:18:53.176Z,701.00
2023-05-05T02:19:53.289Z,701.00
2023-05-05T02:20:53.371Z,705.00
2023-05-05T02:21:53.452Z,700.00
2023-05-05T02:22:53.518Z,700.00
2023-05-05T02:23:53.610Z,698.00
2023-05-05T02:24:53.660Z,700.00
2023-05-05T02:25:53.773Z,695.00
2023-05-05T02:26:53.846Z,696.00
2023-05-05T02:27:53.954Z,691.00
2023-05-05T02:28:54.040Z,702.00
2023-05-05T02:29:54.111Z,683.00
2023-05-05T02:30:56.889Z,703.00
2023-05-05T02:31:54.234Z,699.00
2023-05-05T02:32:54.335Z,693.00
2023-05-05T02:33:54.280Z,684.00
2023-05-05T02:34:54.309Z,694.00
2023-05-05T02:35:54.330Z,698.00
2023-05-05T02:36:54.357Z,687.00
2023-05-05T02:37:54.379Z,684.00
2023-05-05T02:38:54.412Z,691.00
2023-05-05T02:39:54.414Z,685.00
2023-05-05T02:40:54.455Z,679.00
2023-05-05T02:41:54.530Z,683.00
2023-05-05T02:42:54.577Z,682.00
2023-05-05T02:43:54.523Z,689.00
2023-05-05T02:44:54.549Z,678.00
2023-05-05T02:45:54.568Z,677.00
2023-05-05T02:46:54.728Z,684.00
2023-05-05T02:47:54.639Z,679.00
2023-05-05T02:48:54.623Z,678.00
2023-05-05T02:49:54.643Z,671.00
2023-05-05T02:50:54.669Z,680.00
2023-05-05T02:51:54.709Z,685.00
2023-05-05T02:52:54.709Z,679.00
2023-05-05T02:53:54.739Z,678.00
2023-05-05T02:54:54.831Z,676.00
2023-05-05T02:55:54.773Z,676.00
2023-05-05T02:56:54.795Z,679.00
2023-05-05T02:57:54.808Z,679.00
2023-05-05T02:58:54.824Z,676.00
2023-05-05T02:59:54.844Z,659.00
2023-05-05T03:00:54.930Z,659.00
2023-05-05T03:01:54.933Z,663.00
2023-05-05T03:02:55.005Z,662.00
2023-05-05T03:03:54.975Z,662.00
2023-05-05T03:04:54.987Z,663.00
2023-05-05T03:05:54.965Z,662.00
2023-05-05T03:06:55.007Z,662.00
2023-05-05T03:07:55.373Z,663.00
2023-05-05T03:08:55.040Z,662.00
2023-05-05T03:09:55.051Z,660.00
2023-05-05T03:10:55.085Z,670.00
2023-05-05T03:11:55.105Z,662.00
2023-05-05T03:12:55.184Z,662.00
2023-05-05T03:13:55.172Z,662.00
2023-05-05T03:14:55.882Z,671.00
2023-05-05T03:15:55.354Z,666.00
2023-05-05T03:16:55.406Z,657.00
2023-05-05T03:17:55.578Z,663.00
2023-05-05T03:18:55.520Z,662.00
2023-05-05T03:19:55.611Z,661.00
2023-05-05T03:20:55.715Z,658.00
2023-05-05T03:21:55.790Z,658.00
2023-05-05T03:22:56.867Z,661.00
2023-05-05T03:23:55.965Z,656.00
2023-05-05T03:24:56.025Z,655.00
2023-05-05T03:25:56.086Z,657.00
2023-05-05T03:26:56.165Z,650.00
2023-05-05T03:27:56.238Z,655.00
2023-05-05T03:28:56.304Z,660.00
2023-05-05T03:29:56.471Z,657.00
2023-05-05T03:30:56.473Z,656.00
2023-05-05T03:31:56.567Z,651.00
2023-05-05T03:32:56.629Z,652.00
2023-05-05T03:33:56.645Z,657.00
2023-05-05T03:34:56.789Z,654.00
2023-05-05T03:35:56.828Z,652.00
2023-05-05T03:36:56.826Z,654.00
2023-05-05T03:37:56.914Z,654.00
2023-05-05T03:38:56.968Z,650.00
2023-05-05T03:39:57.032Z,646.00
2023-05-05T03:40:57.106Z,657.00
2023-05-05T03:41:57.169Z,648.00
2023-05-05T03:42:57.226Z,655.00
2023-05-05T03:43:57.300Z,651.00
2023-05-05T03:44:57.366Z,652.00
2023-05-05T03:45:57.494Z,650.00
2023-05-05T03:46:57.631Z,649.00
2023-05-05T03:47:57.639Z,652.00
2023-05-05T03:48:57.718Z,651.00
2023-05-05T03:49:57.795Z,650.00
2023-05-05T03:50:57.844Z,654.00
2023-05-05T03:51:57.895Z,649.00
2023-05-05T03:52:57.963Z,649.00
2023-05-05T03:53:57.991Z,650.00
2023-05-05T03:54:58.025Z,647.00
2023-05-05T03:55:58.064Z,648.00
2023-05-05T03:56:58.113Z,651.00
2023-05-05T03:57:58.168Z,645.00
2023-05-05T03:58:58.237Z,646.00
2023-05-05T03:59:58.277Z,646.00
2023-05-05T04:00:58.330Z,645.00
2023-05-05T04:01:58.355Z,644.00
2023-05-05T04:02:58.469Z,643.00
2023-05-05T04:03:58.404Z,647.00
2023-05-05T04:04:58.416Z,643.00
2023-05-05T04:05:58.435Z,644.00
2023-05-05T04:06:58.486Z,645.00
2023-05-05T04:07:58.498Z,640.00
2023-05-05T04:08:58.517Z,640.00
2023-05-05T04:09:58.564Z,644.00
2023-05-05T04:10:58.923Z,641.00
2023-05-05T04:11:58.618Z,641.00
2023-05-05T04:12:58.698Z,645.00
2023-05-05T04:13:58.676Z,639.00
2023-05-05T04:14:58.707Z,637.00
2023-05-05T04:15:58.738Z,638.00
2023-05-05T04:16:58.745Z,638.00
2023-05-05T04:17:58.842Z,640.00
2023-05-05T04:18:58.792Z,638.00
2023-05-05T04:19:58.825Z,640.00
2023-05-05T04:20:58.852Z,638.00
2023-05-05T04:21:58.851Z,638.00
2023-05-05T04:22:58.885Z,639.00
2023-05-05T04:23:58.961Z,636.00
2023-05-05T04:24:58.937Z,632.00
2023-05-05T04:25:59.002Z,642.00
2023-05-05T04:26:59.016Z,634.00
2023-05-05T04:27:59.061Z,632.00
2023-05-05T04:28:59.100Z,634.00
2023-05-05T04:29:59.152Z,632.00
2023-05-05T04:30:59.180Z,635.00
2023-05-05T04:31:59.194Z,631.00
2023-05-05T04:32:59.249Z,633.00
2023-05-05T04:33:59.250Z,630.00
2023-05-05T04:34:59.290Z,633.00
2023-05-05T04:35:59.318Z,628.00
2023-05-05T04:36:59.350Z,631.00
2023-05-05T04:37:59.367Z,630.00
2023-05-05T04:38:59.494Z,629.00
2023-05-05T04:39:59.408Z,628.00
2023-05-05T04:40:59.456Z,627.00
2023-05-05T04:41:59.456Z,627.00
2023-05-05T04:42:59.500Z,626.00
2023-05-05T04:43:59.527Z,622.00
2023-05-05T04:44:59.618Z,627.00
2023-05-05T04:45:59.579Z,621.00
2023-05-05T04:46:59.607Z,623.00
2023-05-05T04:47:59.762Z,627.00
2023-05-05T04:48:59.661Z,625.00
2023-05-05T04:49:59.694Z,626.00
2023-05-05T04:50:59.729Z,626.00
2023-05-05T04:51:59.763Z,627.00
2023-05-05T04:52:59.869Z,631.00
2023-05-05T04:53:59.851Z,622.00
2023-05-05T04:54:59.926Z,627.00
2023-05-05T04:55:59.881Z,624.00
2023-05-05T04:56:59.905Z,622.00
2023-05-05T04:57:59.955Z,621.00
2023-05-05T04:58:59.969Z,622.00
2023-05-05T04:59:59.983Z,621.00
2023-05-05T05:01:00.005Z,620.00
2023-05-05T05:02:00.085Z,623.00
2023-05-05T05:03:00.150Z,623.00
2023-05-05T05:04:00.340Z,620.00
2023-05-05T05:05:00.160Z,620.00
2023-05-05T05:06:00.150Z,620.00
2023-05-05T05:07:00.170Z,620.00
2023-05-05T05:08:00.203Z,617.00
2023-05-05T05:09:00.225Z,618.00
2023-05-05T05:10:00.260Z,614.00
2023-05-05T05:11:00.292Z,615.00
2023-05-05T05:12:00.314Z,620.00
2023-05-05T05:13:00.373Z,614.00
2023-05-05T05:14:00.361Z,612.00
2023-05-05T05:15:00.512Z,615.00
2023-05-05T05:16:00.551Z,613.00
2023-05-05T05:17:00.468Z,616.00
2023-05-05T05:18:00.521Z,612.00
2023-05-05T05:19:01.798Z,581.00
2023-05-05T05:20:01.559Z,576.00
2023-05-05T05:21:00.596Z,562.00
2023-05-05T05:22:00.668Z,564.00
2023-05-05T05:23:00.654Z,575.00
2023-05-05T05:24:00.892Z,563.00
2023-05-05T05:25:00.697Z,589.00
2023-05-05T05:26:00.733Z,581.00
2023-05-05T05:27:00.761Z,579.00
2023-05-05T05:28:09.448Z,480.00
2023-05-05T05:29:01.824Z,481.00
2023-05-05T05:30:01.139Z,487.00
2023-05-05T05:31:00.886Z,494.00
2023-05-05T05:32:01.093Z,503.00
2023-05-05T05:33:00.961Z,409.00
2023-05-05T05:34:01.198Z,442.00
2023-05-05T05:35:01.024Z,400.00
2023-05-05T05:36:01.073Z,400.00
2023-05-05T05:37:01.183Z,400.00
2023-05-05T05:38:01.177Z,400.00
2023-05-05T05:39:01.209Z,444.00
2023-05-05T05:40:01.265Z,495.00
2023-05-05T05:41:01.319Z,504.00
2023-05-05T05:42:01.445Z,507.00
2023-05-05T05:43:01.586Z,502.00
2023-05-05T05:44:01.683Z,500.00
2023-05-05T05:45:01.795Z,508.00
2023-05-05T05:46:01.947Z,524.00
2023-05-05T05:47:02.002Z,534.00
2023-05-05T05:48:02.156Z,495.00
2023-05-05T05:49:02.242Z,506.00
2023-05-05T05:50:02.309Z,531.00
2023-05-05T05:51:02.423Z,529.00
2023-05-05T05:52:02.519Z,531.00
2023-05-05T05:53:02.618Z,515.00
2023-05-05T05:54:02.717Z,549.00
2023-05-05T05:55:02.823Z,520.00
2023-05-05T05:56:03.851Z,549.00
2023-05-05T05:57:03.030Z,529.00
2023-05-05T05:58:03.105Z,558.00
2023-05-05T05:59:03.190Z,528.00
2023-05-05T06:00:03.281Z,513.00
2023-05-05T06:01:03.372Z,505.00
2023-05-05T06:02:03.484Z,514.00
2023-05-05T06:03:03.581Z,500.00
2023-05-05T06:04:03.744Z,519.00
2023-05-05T06:05:04.447Z,516.00
2023-05-05T06:06:03.841Z,513.00
2023-05-05T06:07:03.946Z,500.00
2023-05-05T06:08:04.055Z,506.00
2023-05-05T06:09:04.177Z,543.00
2023-05-05T06:10:18.676Z,498.00
2023-05-05T06:11:05.324Z,499.00
2023-05-05T06:12:04.355Z,503.00
2023-05-05T06:13:04.447Z,512.00
2023-05-05T06:14:04.454Z,535.00
2023-05-05T06:15:04.504Z,520.00
2023-05-05T06:16:04.571Z,496.00
2023-05-05T06:17:04.613Z,512.00
2023-05-05T06:18:04.783Z,540.00
2023-05-05T06:19:04.709Z,519.00
2023-05-05T06:20:04.819Z,499.00
2023-05-05T06:21:04.912Z,516.00
2023-05-05T06:22:05.020Z,502.00
2023-05-05T06:23:05.152Z,515.00
2023-05-05T06:24:05.274Z,497.00
2023-05-05T06:25:07.929Z,508.00
2023-05-05T06:26:05.643Z,579.00
2023-05-05T06:27:05.764Z,648.00
2023-05-05T06:28:05.942Z,741.00
2023-05-05T06:29:05.951Z,816.00
2023-05-05T06:30:06.191Z,855.00
2023-05-05T06:31:06.103Z,914.00
2023-05-05T06:32:06.142Z,963.00
2023-05-05T06:33:06.278Z,1009.00
2023-05-05T06:34:06.350Z,1049.00
2023-05-05T06:35:06.421Z,1070.00
2023-05-05T06:36:06.496Z,1118.00
2023-05-05T06:37:06.698Z,1165.00
2023-05-05T06:38:06.659Z,1207.00
2023-05-05T06:39:06.642Z,1258.00
2023-05-05T06:40:06.931Z,1293.00
2023-05-05T06:41:07.467Z,1310.00
2023-05-05T06:42:06.748Z,1355.00
2023-05-05T06:43:06.789Z,1406.00
2023-05-05T06:44:06.867Z,1449.00
2023-05-05T06:45:06.945Z,1499.00
2023-05-05T06:46:07.001Z,1536.00
2023-05-05T06:47:07.161Z,1583.00
2023-05-05T06:48:07.264Z,1608.00
2023-05-05T06:49:08.026Z,1645.00
2023-05-05T06:50:07.542Z,1686.00
2023-05-05T06:51:07.415Z,1736.00
2023-05-05T06:52:07.485Z,1751.00
2023-05-05T06:53:07.545Z,1804.00
2023-05-05T06:54:07.630Z,1814.00
2023-05-05T06:55:07.708Z,1876.00
2023-05-05T06:56:07.774Z,1932.00
2023-05-05T06:57:07.848Z,1965.00
2023-05-05T06:58:07.905Z,2002.00
2023-05-05T06:59:07.965Z,2009.00
2023-05-05T07:00:08.319Z,2062.00
2023-05-05T07:01:08.234Z,2134.00
2023-05-05T07:02:08.166Z,2195.00
2023-05-05T07:03:08.249Z,2230.00
2023-05-05T07:04:08.361Z,2245.00
2023-05-05T07:05:08.328Z,2294.00
2023-05-05T07:06:08.378Z,2331.00
2023-05-05T07:07:08.446Z,2370.00
2023-05-05T07:08:08.465Z,2397.00
2023-05-05T07:09:08.532Z,2429.00
2023-05-05T07:10:08.753Z,2473.00
2023-05-05T07:11:08.603Z,2502.00
2023-05-05T07:12:08.903Z,2536.00
2023-05-05T07:13:08.702Z,2581.00
2023-05-05T07:14:08.727Z,2648.00
2023-05-05T07:15:23.475Z,2684.00
2023-05-05T07:16:09.796Z,2686.00
2023-05-05T07:17:08.899Z,2695.00
2023-05-05T07:18:08.895Z,2711.00
2023-05-05T07:19:08.993Z,2734.00
2023-05-05T07:20:09.132Z,2734.00
2023-05-05T07:21:08.836Z,2691.00
2023-05-05T07:22:08.847Z,2735.00
2023-05-05T07:23:08.849Z,2738.00
2023-05-05T07:24:08.870Z,2739.00
2023-05-05T07:25:08.877Z,2740.00
2023-05-05T07:26:08.897Z,2761.00
2023-05-05T07:27:08.923Z,2793.00
2023-05-05T07:28:08.933Z,2805.00
2023-05-05T07:29:08.912Z,2831.00
2023-05-05T07:30:13.018Z,2883.00
2023-05-05T07:31:09.970Z,2884.00
2023-05-05T07:32:09.039Z,2892.00
2023-05-05T07:33:09.058Z,2909.00
2023-05-05T07:34:08.973Z,2957.00
2023-05-05T07:35:09.024Z,3025.00
2023-05-05T07:36:08.969Z,3065.00
2023-05-05T07:37:09.898Z,3095.00
2023-05-05T07:38:10.894Z,3123.00
2023-05-05T07:39:08.996Z,3133.00
2023-05-05T07:40:09.359Z,3161.00
2023-05-05T07:41:09.013Z,3218.00
2023-05-05T07:42:09.012Z,3231.00
2023-05-05T07:43:09.015Z,3267.00
2023-05-05T07:44:09.014Z,3304.00
2023-05-05T07:45:09.023Z,3310.00
2023-05-05T07:46:09.265Z,3333.00
2023-05-05T07:47:09.014Z,3353.00
2023-05-05T07:48:09.129Z,3404.00
2023-05-05T07:49:09.139Z,3409.00
2023-05-05T07:50:09.350Z,3447.00
2023-05-05T07:51:09.017Z,3491.00
2023-05-05T07:52:09.031Z,3514.00
2023-05-05T07:53:14.496Z,3514.00
2023-05-05T07:54:11.032Z,3516.00
2023-05-05T07:55:09.015Z,3524.00
2023-05-05T07:56:09.103Z,3544.00
2023-05-05T07:57:09.035Z,3570.00
2023-05-05T07:58:09.062Z,3625.00
2023-05-05T07:59:09.036Z,3638.00
2023-05-05T08:00:11.996Z,3640.00
2023-05-05T08:01:09.037Z,3650.00
2023-05-05T08:02:09.034Z,3670.00
2023-05-05T08:03:11.688Z,3708.00
2023-05-05T08:04:09.638Z,3644.00
2023-05-05T08:05:09.822Z,3664.00
2023-05-05T08:06:09.054Z,3700.00
2023-05-05T08:07:09.051Z,3771.00
2023-05-05T08:08:09.086Z,3867.00
2023-05-05T08:09:09.051Z,3891.00
2023-05-05T08:10:09.055Z,3903.00
2023-05-05T08:11:09.070Z,3959.00
2023-05-05T08:12:09.047Z,3960.00
2023-05-05T08:13:09.081Z,3943.00
2023-05-05T08:14:09.064Z,3972.00
2023-05-05T08:15:09.354Z,3903.00
2023-05-05T08:16:09.172Z,3757.00
2023-05-05T08:17:09.110Z,3648.00
2023-05-05T08:18:09.114Z,3556.00
2023-05-05T08:19:21.173Z,3419.00
2023-05-05T08:20:11.018Z,3420.00
2023-05-05T08:21:10.007Z,3422.00
2023-05-05T08:22:09.172Z,3376.00
2023-05-05T08:23:09.189Z,3343.00
2023-05-05T08:24:09.208Z,3295.00
2023-05-05T08:25:09.337Z,3292.00
2023-05-05T08:26:09.233Z,3267.00
2023-05-05T08:27:09.237Z,3260.00
2023-05-05T08:28:09.269Z,3238.00
2023-05-05T08:29:09.496Z,3231.00
2023-05-05T08:30:09.274Z,3229.00
2023-05-05T08:31:09.330Z,3221.00
2023-05-05T08:32:09.314Z,3204.00
2023-05-05T08:33:09.344Z,3195.00
2023-05-05T08:34:09.334Z,3203.00
2023-05-05T08:35:09.531Z,3199.00
2023-05-05T08:36:09.401Z,3209.00
2023-05-05T08:37:09.360Z,3195.00
2023-05-05T08:38:12.009Z,3212.00
2023-05-05T08:39:10.427Z,3198.00
2023-05-05T08:40:09.678Z,3194.00
2023-05-05T08:41:10.516Z,3189.00
2023-05-05T08:42:09.712Z,3185.00
2023-05-05T08:43:09.753Z,3183.00
2023-05-05T08:44:09.761Z,3169.00
2023-05-05T08:45:10.689Z,3179.00
2023-05-05T08:46:09.827Z,3179.00
2023-05-05T08:47:09.999Z,3175.00
2023-05-05T08:48:09.913Z,3174.00
2023-05-05T08:49:09.938Z,3172.00
2023-05-05T08:50:09.984Z,3171.00
2023-05-05T08:51:10.037Z,3162.00
2023-05-05T08:52:10.208Z,3166.00
2023-05-05T08:53:10.103Z,3153.00
2023-05-05T08:54:10.202Z,3177.00
2023-05-05T08:55:10.230Z,3175.00
2023-05-05T08:56:11.076Z,3164.00
2023-05-05T08:57:10.273Z,3162.00
2023-05-05T08:58:10.332Z,3150.00
2023-05-05T08:59:10.367Z,3158.00
2023-05-05T09:00:10.409Z,3157.00
2023-05-05T09:01:10.484Z,3143.00
2023-05-05T09:02:10.550Z,3152.00
2023-05-05T09:03:10.673Z,3144.00
2023-05-05T09:04:10.596Z,3158.00
2023-05-05T09:05:10.683Z,3142.00
2023-05-05T09:06:10.704Z,3142.00
2023-05-05T09:07:10.718Z,3143.00
2023-05-05T09:08:10.948Z,3140.00
2023-05-05T09:09:10.813Z,3134.00
2023-05-05T09:10:10.862Z,3156.00
2023-05-05T09:11:10.915Z,3136.00
2023-05-05T09:12:11.037Z,3153.00
2023-05-05T09:13:11.042Z,3119.00
2023-05-05T09:14:11.057Z,3144.00
2023-05-05T09:15:11.124Z,3139.00
2023-05-05T09:16:11.262Z,3116.00
2023-05-05T09:17:11.238Z,3129.00
2023-05-05T09:18:11.365Z,3123.00
2023-05-05T09:19:11.398Z,3115.00
2023-05-05T09:20:11.417Z,3033.00
2023-05-05T09:21:11.494Z,3034.00
2023-05-05T09:22:11.607Z,3016.00
2023-05-05T09:23:11.627Z,3002.00
2023-05-05T09:24:11.855Z,2955.00
2023-05-05T09:25:11.733Z,2964.00
2023-05-05T09:26:11.725Z,2964.00
2023-05-05T09:27:11.728Z,2964.00
2023-05-05T09:28:11.747Z,2962.00
2023-05-05T09:29:11.758Z,2916.00
2023-05-05T09:30:11.756Z,2895.00
2023-05-05T09:31:11.822Z,2872.00
2023-05-05T09:32:11.763Z,2861.00
2023-05-05T09:33:11.805Z,2835.00
2023-05-05T09:34:11.777Z,2803.00
2023-05-05T09:35:11.852Z,2804.00
2023-05-05T09:36:11.759Z,2821.00
2023-05-05T09:37:12.577Z,2829.00
2023-05-05T09:38:11.798Z,2826.00
2023-05-05T09:39:11.802Z,2806.00
2023-05-05T09:40:12.019Z,2804.00
2023-05-05T09:41:11.800Z,2815.00
2023-05-05T09:42:11.784Z,2809.00
2023-05-05T09:43:11.831Z,2800.00
2023-05-05T09:44:11.794Z,2799.00
2023-05-05T09:45:11.807Z,2783.00
2023-05-05T09:46:12.533Z,2756.00
2023-05-05T09:47:26.081Z,2754.00
2023-05-05T09:48:13.968Z,2755.00
2023-05-05T09:49:11.852Z,2756.00
2023-05-05T09:50:12.820Z,2754.00
2023-05-05T09:51:11.816Z,2759.00
2023-05-05T09:52:12.525Z,2757.00
2023-05-05T09:53:11.833Z,2756.00
2023-05-05T09:54:12.527Z,2744.00
2023-05-05T09:55:11.839Z,2765.00
2023-05-05T09:56:12.044Z,2786.00
2023-05-05T09:57:11.854Z,2823.00
2023-05-05T09:58:11.894Z,2790.00
2023-05-05T09:59:11.919Z,2786.00
2023-05-05T10:00:12.131Z,2789.00
2023-05-05T10:01:11.992Z,2808.00
2023-05-05T10:02:11.957Z,2802.00
2023-05-05T10:03:11.856Z,2798.00
2023-05-05T10:04:11.862Z,2828.00
2023-05-05T10:05:11.882Z,2789.00
2023-05-05T10:06:11.873Z,2773.00
2023-05-05T10:07:11.867Z,2815.00
2023-05-05T10:08:11.881Z,2802.00
2023-05-05T10:09:11.879Z,2806.00
2023-05-05T10:10:12.046Z,2812.00
2023-05-05T10:11:11.881Z,2828.00
2023-05-05T10:12:12.043Z,2849.00
2023-05-05T10:13:12.009Z,2869.00
2023-05-05T10:14:12.530Z,2891.00
2023-05-05T10:15:11.917Z,2896.00
2023-05-05T10:16:12.544Z,2900.00
2023-05-05T10:17:12.453Z,2901.00
2023-05-05T10:18:12.581Z,2936.00
2023-05-05T10:19:11.936Z,2960.00
2023-05-05T10:20:11.951Z,2981.00
2023-05-05T10:21:12.540Z,3014.00
2023-05-05T10:22:11.982Z,3022.00
2023-05-05T10:23:11.981Z,3051.00
2023-05-05T10:24:11.976Z,3087.00
2023-05-05T10:25:12.083Z,3122.00
2023-05-05T10:26:12.074Z,3141.00
2023-05-05T10:27:12.715Z,3163.00
2023-05-05T10:28:12.272Z,3171.00
2023-05-05T10:29:12.324Z,3200.00
2023-05-05T10:30:12.289Z,3100.00
2023-05-05T10:31:24.576Z,3127.00
2023-05-05T10:32:37.123Z,3128.00
2023-05-05T10:33:30.167Z,3129.00
2023-05-05T10:34:13.499Z,3131.00
2023-05-05T10:35:12.305Z,3140.00
2023-05-05T10:36:12.317Z,3148.00
2023-05-05T10:37:12.286Z,3154.00
2023-05-05T10:38:13.297Z,3130.00
2023-05-05T10:39:13.044Z,3136.00
2023-05-05T10:40:12.290Z,3143.00
2023-05-05T10:41:12.260Z,3166.00
2023-05-05T10:42:12.242Z,3234.00
2023-05-05T10:43:12.552Z,3276.00
2023-05-05T10:44:12.254Z,3323.00
2023-05-05T10:45:12.225Z,3319.00
2023-05-05T10:46:12.223Z,3369.00
2023-05-05T10:47:12.188Z,3373.00
2023-05-05T10:48:12.237Z,3372.00
2023-05-05T10:49:13.249Z,3396.00
2023-05-05T10:50:12.177Z,3415.00
2023-05-05T10:51:12.147Z,3454.00
2023-05-05T10:52:12.143Z,3425.00
2023-05-05T10:53:12.118Z,3456.00
2023-05-05T10:54:12.133Z,3459.00
2023-05-05T10:55:12.093Z,3443.00
2023-05-05T10:56:13.053Z,3447.00
2023-05-05T10:57:12.057Z,3456.00
2023-05-05T10:58:12.052Z,3446.00
2023-05-05T10:59:12.999Z,3460.00
2023-05-05T11:00:14.578Z,3471.00
2023-05-05T11:01:12.027Z,3491.00
2023-05-05T11:02:12.059Z,3522.00
2023-05-05T11:03:12.059Z,3562.00
2023-05-05T11:04:11.963Z,3563.00
2023-05-05T11:05:11.958Z,3569.00
2023-05-05T11:06:11.921Z,3575.00
2023-05-05T11:07:14.690Z,3563.00
2023-05-05T11:08:11.893Z,3564.00
2023-05-05T11:09:11.882Z,3567.00
2023-05-05T11:10:12.012Z,3572.00
2023-05-05T11:11:11.859Z,3577.00
2023-05-05T11:12:11.856Z,3589.00
2023-05-05T11:13:11.940Z,3598.00
2023-05-05T11:14:11.822Z,3597.00
2023-05-05T11:15:11.838Z,3582.00
2023-05-05T11:16:11.848Z,3578.00
2023-05-05T11:17:11.823Z,3580.00
2023-05-05T11:18:11.860Z,3578.00
2023-05-05T11:19:11.810Z,3579.00
2023-05-05T11:20:11.801Z,3563.00
2023-05-05T11:21:11.793Z,3569.00
2023-05-05T11:22:11.866Z,3567.00
2023-05-05T11:23:12.588Z,3562.00
2023-05-05T11:24:11.787Z,3565.00
2023-05-05T11:25:11.792Z,3565.00
2023-05-05T11:26:12.780Z,3565.00
2023-05-05T11:27:11.772Z,3566.00
2023-05-05T11:28:11.898Z,3567.00
2023-05-05T11:29:12.617Z,3556.00
2023-05-05T11:30:11.855Z,3548.00
2023-05-05T11:31:11.780Z,3543.00
2023-05-05T11:32:11.813Z,3546.00
2023-05-05T11:33:11.743Z,3529.00
2023-05-05T11:34:11.752Z,3528.00
2023-05-05T11:35:11.836Z,3531.00
2023-05-05T11:36:11.764Z,3527.00
2023-05-05T11:37:11.789Z,3524.00
2023-05-05T11:38:12.107Z,3514.00
2023-05-05T11:39:11.934Z,3518.00
2023-05-05T11:40:12.063Z,3512.00
2023-05-05T11:41:12.021Z,3498.00
2023-05-05T11:42:12.069Z,3509.00
2023-05-05T11:43:12.119Z,3503.00
2023-05-05T11:44:12.193Z,3496.00
2023-05-05T11:45:12.242Z,3492.00
2023-05-05T11:46:12.373Z,3482.00
2023-05-05T11:47:12.336Z,3490.00
2023-05-05T11:48:12.518Z,3479.00
2023-05-05T11:49:12.442Z,3470.00
2023-05-05T11:50:12.506Z,3473.00
2023-05-05T11:51:12.552Z,3472.00
2023-05-05T11:52:12.626Z,3455.00
2023-05-05T11:53:12.659Z,3471.00
2023-05-05T11:54:12.719Z,3449.00
2023-05-05T11:55:12.773Z,3440.00
2023-05-05T11:56:12.837Z,3443.00
2023-05-05T11:57:12.885Z,3443.00
2023-05-05T11:58:12.926Z,3431.00
2023-05-05T11:59:12.969Z,3429.00
2023-05-05T12:00:13.077Z,3434.00
2023-05-05T12:01:13.061Z,3421.00
2023-05-05T12:02:13.098Z,3419.00
2023-05-05T12:03:13.179Z,3404.00
2023-05-05T12:04:13.349Z,3395.00
2023-05-05T12:05:13.226Z,3412.00
2023-05-05T12:06:13.260Z,3398.00
2023-05-05T12:07:13.306Z,3402.00
2023-05-05T12:08:13.343Z,3393.00
2023-05-05T12:09:13.382Z,3397.00
2023-05-05T12:10:13.422Z,3388.00
2023-05-05T12:11:13.450Z,3375.00
2023-05-05T12:12:13.498Z,3390.00
2023-05-05T12:13:13.576Z,3387.00
2023-05-05T12:14:13.563Z,3371.00
2023-05-05T12:15:14.582Z,3365.00
2023-05-05T12:16:13.662Z,3359.00
2023-05-05T12:17:13.661Z,3359.00
2023-05-05T12:18:13.750Z,3356.00